Time,TemperatureF,DewpointF,PressureIn,WindDirection,WindDirectionDegrees,WindSpeedMPH,WindSpeedGustMPH,Humidity,HourlyPrecipIn,Conditions,Clouds,dailyrainin,SoftwareType,DateUTC
2013-02-01 00:00:00,7.8,0.9,30.20,WSW,247,11.0,11.0,73,0.00,,,0.00,Wunderground v.1.15,2013-02-01 05:00:00,
2013-02-01 00:05:00,7.8,0.6,30.20,WNW,292,11.0,22.0,72,0.00,,,0.00,Wunderground v.1.15,2013-02-01 05:05:00,
2013-02-01 00:10:00,7.8,1.2,30.20,NW,308,9.0,9.0,74,0.00,,,0.00,Wunderground v.1.15,2013-02-01 05:10:00,
2013-02-01 00:15:00,7.7,0.8,30.20,WNW,294,8.0,22.0,73,0.00,,,0.00,Wunderground v.1.15,2013-02-01 05:15:00,
2013-02-01 00:20:00,7.5,0.7,30.20,NW,321,9.0,9.0,73,0.00,,,0.00,Wunderground v.1.15,2013-02-01 05:20:00,
2013-02-01 00:25:00,7.4,0.6,30.21,WSW,254,10.0,10.0,73,0.00,,,0.00,Wunderground v.1.15,2013-02-01 05:25:00,
2013-02-01 00:35:00,7.4,0.8,30.21,West,281,10.0,22.0,74,0.00,,,0.00,Wunderground v.1.15,2013-02-01 05:35:00,
2013-02-01 00:40:00,7.4,1.1,30.22,NW,314,9.0,22.0,75,0.00,,,0.00,Wunderground v.1.15,2013-02-01 05:40:00,
2013-02-01 00:45:00,7.3,1.0,30.22,West,275,9.0,22.0,75,0.00,,,0.00,Wunderground v.1.15,2013-02-01 05:45:00,
2013-02-01 00:50:00,7.3,1.0,30.22,WNW,289,10.0,22.0,75,0.00,,,0.00,Wunderground v.1.15,2013-02-01 05:50:00,
2013-02-01 00:55:00,7.2,1.2,30.23,West,278,9.0,22.0,76,0.00,,,0.00,Wunderground v.1.15,2013-02-01 05:55:00,
2013-02-01 01:05:00,7.2,1.2,30.23,NW,317,10.0,22.0,76,0.00,,,0.00,Wunderground v.1.15,2013-02-01 06:05:00,
2013-02-01 01:10:00,7.2,1.8,30.24,WNW,299,9.0,9.0,78,0.00,,,0.00,Wunderground v.1.15,2013-02-01 06:10:00,
2013-02-01 01:15:00,7.2,2.1,30.24,WNW,284,7.0,11.0,79,0.00,,,0.00,Wunderground v.1.15,2013-02-01 06:15:00,
2013-02-01 01:20:00,7.1,2.5,30.24,WNW,297,7.0,7.0,81,0.00,,,0.00,Wunderground v.1.15,2013-02-01 06:20:00,
2013-02-01 01:25:00,6.9,2.8,30.24,WNW,296,8.0,8.0,83,0.00,,,0.00,Wunderground v.1.15,2013-02-01 06:25:00,
2013-02-01 01:30:00,6.9,2.8,30.25,NW,304,8.0,8.0,83,0.00,,,0.00,Wunderground v.1.15,2013-02-01 06:30:00,
2013-02-01 01:40:00,6.8,1.7,30.25,NW,304,9.0,22.0,79,0.00,,,0.00,Wunderground v.1.15,2013-02-01 06:40:00,
2013-02-01 01:45:00,6.7,1.3,30.25,WNW,299,8.0,22.0,78,0.00,,,0.00,Wunderground v.1.15,2013-02-01 06:45:00,
2013-02-01 01:50:00,6.7,0.7,30.25,WNW,297,9.0,9.0,76,0.00,,,0.00,Wunderground v.1.15,2013-02-01 06:50:00,
2013-02-01 01:55:00,6.5,0.8,30.26,West,269,9.0,22.0,77,0.00,,,0.00,Wunderground v.1.15,2013-02-01 06:55:00,
2013-02-01 02:00:00,6.3,1.7,30.26,WNW,290,8.0,8.0,81,0.00,,,0.00,Wunderground v.1.15,2013-02-01 07:00:00,
2013-02-01 02:10:00,6.4,0.7,30.26,WSW,238,9.0,9.0,77,0.00,,,0.00,Wunderground v.1.15,2013-02-01 07:10:00,
2013-02-01 02:15:00,6.3,0.3,30.27,WSW,255,9.0,22.0,76,0.00,,,0.00,Wunderground v.1.15,2013-02-01 07:15:00,
2013-02-01 02:20:00,6.3,0.3,30.28,NW,315,9.0,22.0,76,0.00,,,0.00,Wunderground v.1.15,2013-02-01 07:20:00,
2013-02-01 02:25:00,6.2,0.0,30.28,NW,308,10.0,22.0,75,0.00,,,0.00,Wunderground v.1.15,2013-02-01 07:25:00,
2013-02-01 02:30:00,6.2,-0.3,30.28,NNW,328,10.0,10.0,74,0.00,,,0.00,Wunderground v.1.15,2013-02-01 07:30:00,
2013-02-01 02:35:00,6.1,-0.1,30.28,WNW,282,7.0,22.0,75,0.00,,,0.00,Wunderground v.1.15,2013-02-01 07:35:00,
2013-02-01 02:45:00,5.9,-0.6,30.29,WNW,290,8.0,22.0,74,0.00,,,0.00,Wunderground v.1.15,2013-02-01 07:45:00,
2013-02-01 02:50:00,5.9,-0.6,30.29,West,274,9.0,9.0,74,0.00,,,0.00,Wunderground v.1.15,2013-02-01 07:50:00,
2013-02-01 02:55:00,5.9,-0.3,30.29,NW,307,11.0,18.0,75,0.00,,,0.00,Wunderground v.1.15,2013-02-01 07:55:00,
2013-02-01 03:00:00,6.0,0.1,30.29,NW,312,10.0,10.0,76,0.00,,,0.00,Wunderground v.1.15,2013-02-01 08:00:00,
2013-02-01 03:05:00,6.1,0.4,30.30,WNW,290,8.0,22.0,77,0.00,,,0.00,Wunderground v.1.15,2013-02-01 08:05:00,
2013-02-01 03:15:00,5.9,-0.3,30.30,NW,305,8.0,22.0,75,0.00,,,0.00,Wunderground v.1.15,2013-02-01 08:15:00,
2013-02-01 03:20:00,5.7,-0.8,30.30,WNW,294,8.0,22.0,74,0.00,,,0.00,Wunderground v.1.15,2013-02-01 08:20:00,
2013-02-01 03:25:00,5.6,-0.9,30.31,WSW,246,8.0,22.0,74,0.00,,,0.00,Wunderground v.1.15,2013-02-01 08:25:00,
2013-02-01 03:30:00,5.6,-0.6,30.30,WNW,294,7.0,22.0,75,0.00,,,0.00,Wunderground v.1.15,2013-02-01 08:30:00,
2013-02-01 03:35:00,5.5,-0.7,30.31,WNW,287,8.0,22.0,75,0.00,,,0.00,Wunderground v.1.15,2013-02-01 08:35:00,
2013-02-01 03:40:00,5.5,-0.7,30.31,West,279,7.0,22.0,75,0.00,,,0.00,Wunderground v.1.15,2013-02-01 08:40:00,
2013-02-01 03:50:00,5.6,0.2,30.31,West,275,8.0,8.0,78,0.00,,,0.00,Wunderground v.1.15,2013-02-01 08:50:00,
2013-02-01 03:55:00,5.5,-0.4,30.31,NW,321,9.0,10.0,76,0.00,,,0.00,Wunderground v.1.15,2013-02-01 08:55:00,
2013-02-01 04:00:00,5.4,-0.8,30.32,WNW,282,8.0,22.0,75,0.00,,,0.00,Wunderground v.1.15,2013-02-01 09:00:00,
2013-02-01 04:05:00,5.4,-0.5,30.32,SW,218,6.0,22.0,76,0.00,,,0.00,Wunderground v.1.15,2013-02-01 09:05:00,
2013-02-01 04:10:00,5.4,0.0,30.32,NNW,333,6.0,22.0,78,0.00,,,0.00,Wunderground v.1.15,2013-02-01 09:10:00,
2013-02-01 04:20:00,5.3,-0.6,30.32,West,275,9.0,22.0,76,0.00,,,0.00,Wunderground v.1.15,2013-02-01 09:20:00,
2013-02-01 04:25:00,5.2,-0.7,30.32,NW,314,10.0,22.0,76,0.00,,,0.00,Wunderground v.1.15,2013-02-01 09:25:00,
2013-02-01 04:30:00,5.2,-0.7,30.32,WNW,298,10.0,22.0,76,0.00,,,0.00,Wunderground v.1.15,2013-02-01 09:30:00,
2013-02-01 04:35:00,5.1,-0.8,30.32,WNW,284,10.0,22.0,76,0.00,,,0.00,Wunderground v.1.15,2013-02-01 09:35:00,
2013-02-01 04:40:00,5.1,-0.5,30.33,WNW,295,8.0,22.0,77,0.00,,,0.00,Wunderground v.1.15,2013-02-01 09:40:00,
2013-02-01 04:45:00,5.1,-0.5,30.32,West,271,7.0,22.0,77,0.00,,,0.00,Wunderground v.1.15,2013-02-01 09:45:00,
2013-02-01 04:55:00,5.0,-0.9,30.33,WNW,295,8.0,22.0,76,0.00,,,0.00,Wunderground v.1.15,2013-02-01 09:55:00,
2013-02-01 05:00:00,5.0,-0.6,30.33,West,265,8.0,22.0,77,0.00,,,0.00,Wunderground v.1.15,2013-02-01 10:00:00,
2013-02-01 05:05:00,5.1,-0.5,30.34,WSW,254,8.0,22.0,77,0.00,,,0.00,Wunderground v.1.15,2013-02-01 10:05:00,
2013-02-01 05:10:00,5.1,-0.3,30.34,NW,309,8.0,22.0,78,0.00,,,0.00,Wunderground v.1.15,2013-02-01 10:10:00,
2013-02-01 05:15:00,5.1,-0.3,30.34,West,259,8.0,22.0,78,0.00,,,0.00,Wunderground v.1.15,2013-02-01 10:15:00,
2013-02-01 05:25:00,5.1,-0.3,30.34,WNW,302,9.0,22.0,78,0.00,,,0.00,Wunderground v.1.15,2013-02-01 10:25:00,
2013-02-01 05:30:00,5.1,0.0,30.35,West,269,8.0,8.0,79,0.00,,,0.00,Wunderground v.1.15,2013-02-01 10:30:00,
2013-02-01 05:35:00,5.2,0.1,30.35,WNW,288,7.0,22.0,79,0.00,,,0.00,Wunderground v.1.15,2013-02-01 10:35:00,
2013-02-01 05:40:00,5.1,0.0,30.34,WNW,286,6.0,22.0,79,0.00,,,0.00,Wunderground v.1.15,2013-02-01 10:40:00,
2013-02-01 05:45:00,5.0,-0.6,30.35,West,274,8.0,22.0,77,0.00,,,0.00,Wunderground v.1.15,2013-02-01 10:45:00,
2013-02-01 05:50:00,4.9,-0.5,30.35,West,264,9.0,9.0,78,0.00,,,0.00,Wunderground v.1.15,2013-02-01 10:50:00,
2013-02-01 06:00:00,4.8,-0.6,30.35,West,269,8.0,8.0,78,0.00,,,0.00,Wunderground v.1.15,2013-02-01 11:00:00,
2013-02-01 06:10:00,4.9,-0.5,30.36,WSW,255,6.0,12.0,78,0.00,,,0.00,Wunderground v.1.15,2013-02-01 11:10:00,
2013-02-01 06:15:00,4.8,-0.8,30.36,West,277,8.0,12.0,77,0.00,,,0.00,Wunderground v.1.15,2013-02-01 11:15:00,
2013-02-01 06:20:00,4.7,-0.9,30.36,NW,315,8.0,8.0,77,0.00,,,0.00,Wunderground v.1.15,2013-02-01 11:20:00,
2013-02-01 06:25:00,4.6,-1.0,30.36,WNW,300,8.0,8.0,77,0.00,,,0.00,Wunderground v.1.15,2013-02-01 11:25:00,
2013-02-01 06:30:00,4.5,-1.1,30.36,WNW,301,7.0,7.0,77,0.00,,,0.00,Wunderground v.1.15,2013-02-01 11:30:00,
2013-02-01 06:35:00,4.5,-1.1,30.37,NW,304,7.0,15.0,77,0.00,,,0.00,Wunderground v.1.15,2013-02-01 11:35:00,
2013-02-01 06:40:00,4.5,-1.1,30.36,WNW,299,7.0,7.0,77,0.00,,,0.00,Wunderground v.1.15,2013-02-01 11:40:00,
2013-02-01 06:45:00,4.5,-0.8,30.37,WNW,296,6.0,7.0,78,0.00,,,0.00,Wunderground v.1.15,2013-02-01 11:45:00,
2013-02-01 06:55:00,4.5,-0.8,30.37,NW,305,6.0,7.0,78,0.00,,,0.00,Wunderground v.1.15,2013-02-01 11:55:00,
2013-02-01 07:00:00,4.4,-0.9,30.37,WNW,302,6.0,6.0,78,0.00,,,0.00,Wunderground v.1.15,2013-02-01 12:00:00,
2013-02-01 07:05:00,4.4,-1.2,30.37,West,272,7.0,10.0,77,0.00,,,0.00,Wunderground v.1.15,2013-02-01 12:05:00,
2013-02-01 07:10:00,4.3,-1.3,30.37,WSW,257,6.0,6.0,77,0.00,,,0.00,Wunderground v.1.15,2013-02-01 12:10:00,
2013-02-01 07:15:00,4.3,-1.3,30.37,NW,324,7.0,7.0,77,0.00,,,0.00,Wunderground v.1.15,2013-02-01 12:15:00,
2013-02-01 07:20:00,4.3,-1.0,30.38,West,271,6.0,6.0,78,0.00,,,0.00,Wunderground v.1.15,2013-02-01 12:20:00,
2013-02-01 07:25:00,4.2,-1.1,30.38,WSW,257,4.0,7.0,78,0.00,,,0.00,Wunderground v.1.15,2013-02-01 12:25:00,
2013-02-01 07:35:00,4.2,-1.4,30.38,West,277,7.0,20.0,77,0.00,,,0.00,Wunderground v.1.15,2013-02-01 12:35:00,
2013-02-01 07:40:00,4.1,-1.5,30.38,NNW,327,6.0,20.0,77,0.00,,,0.00,Wunderground v.1.15,2013-02-01 12:40:00,
2013-02-01 07:45:00,4.1,-1.5,30.38,WNW,296,6.0,20.0,77,0.00,,,0.00,Wunderground v.1.15,2013-02-01 12:45:00,
2013-02-01 07:50:00,4.2,-1.4,30.39,NW,321,7.0,7.0,77,0.00,,,0.00,Wunderground v.1.15,2013-02-01 12:50:00,
2013-02-01 07:55:00,4.2,-1.4,30.38,West,279,7.0,9.0,77,0.00,,,0.00,Wunderground v.1.15,2013-02-01 12:55:00,
2013-02-01 08:05:00,4.2,-1.1,30.39,WNW,302,6.0,20.0,78,0.00,,,0.00,Wunderground v.1.15,2013-02-01 13:05:00,
2013-02-01 08:10:00,4.2,-1.1,30.39,NW,319,5.0,5.0,78,0.00,,,0.00,Wunderground v.1.15,2013-02-01 13:10:00,
2013-02-01 08:15:00,4.2,-0.9,30.39,WSW,243,5.0,9.0,79,0.00,,,0.00,Wunderground v.1.15,2013-02-01 13:15:00,
2013-02-01 08:20:00,4.3,-0.8,30.39,WNW,288,5.0,20.0,79,0.00,,,0.00,Wunderground v.1.15,2013-02-01 13:20:00,
2013-02-01 08:25:00,4.4,-0.7,30.39,WNW,287,6.0,20.0,79,0.00,,,0.00,Wunderground v.1.15,2013-02-01 13:25:00,
2013-02-01 08:30:00,4.4,-0.7,30.40,WNW,298,5.0,5.0,79,0.00,,,0.00,Wunderground v.1.15,2013-02-01 13:30:00,
2013-02-01 08:40:00,4.7,-0.4,30.40,West,261,5.0,5.0,79,0.00,,,0.00,Wunderground v.1.15,2013-02-01 13:40:00,
2013-02-01 08:45:00,4.8,-0.3,30.40,WNW,297,5.0,7.0,79,0.00,,,0.00,Wunderground v.1.15,2013-02-01 13:45:00,
2013-02-01 08:50:00,4.9,-0.2,30.40,WSW,254,5.0,5.0,79,0.00,,,0.00,Wunderground v.1.15,2013-02-01 13:50:00,
2013-02-01 08:55:00,5.0,-0.1,30.40,West,271,5.0,20.0,79,0.00,,,0.00,Wunderground v.1.15,2013-02-01 13:55:00,
2013-02-01 09:00:00,5.1,0.3,30.40,West,265,4.0,4.0,80,0.00,,,0.00,Wunderground v.1.15,2013-02-01 14:00:00,
2013-02-01 09:10:00,5.6,0.8,30.41,WSW,246,6.0,20.0,80,0.00,,,0.00,Wunderground v.1.15,2013-02-01 14:10:00,
2013-02-01 09:15:00,5.8,0.7,30.41,West,281,6.0,20.0,79,0.00,,,0.00,Wunderground v.1.15,2013-02-01 14:15:00,
2013-02-01 09:20:00,5.8,0.7,30.42,WNW,297,6.0,20.0,79,0.00,,,0.00,Wunderground v.1.15,2013-02-01 14:20:00,
2013-02-01 09:25:00,5.9,0.5,30.42,NW,308,6.0,20.0,78,0.00,,,0.00,Wunderground v.1.15,2013-02-01 14:25:00,
2013-02-01 09:30:00,6.0,0.6,30.42,West,273,6.0,6.0,78,0.00,,,0.00,Wunderground v.1.15,2013-02-01 14:30:00,
2013-02-01 09:35:00,5.6,-0.1,30.42,West,279,7.0,7.0,77,0.00,,,0.00,Wunderground v.1.15,2013-02-01 14:35:00,
2013-02-01 09:45:00,5.6,-0.1,30.42,NW,315,7.0,20.0,77,0.00,,,0.00,Wunderground v.1.15,2013-02-01 14:45:00,
2013-02-01 09:50:00,6.0,0.3,30.43,WSW,255,7.0,20.0,77,0.00,,,0.00,Wunderground v.1.15,2013-02-01 14:50:00,
2013-02-01 09:55:00,6.0,0.1,30.43,West,264,7.0,20.0,76,0.00,,,0.00,Wunderground v.1.15,2013-02-01 14:55:00,
2013-02-01 10:00:00,6.0,-0.2,30.43,WSW,244,6.0,20.0,75,0.00,,,0.00,Wunderground v.1.15,2013-02-01 15:00:00,
2013-02-01 10:05:00,6.0,-0.2,30.43,West,281,6.0,20.0,75,0.00,,,0.00,Wunderground v.1.15,2013-02-01 15:05:00,
2013-02-01 10:15:00,6.8,0.6,30.43,West,267,7.0,20.0,75,0.00,,,0.00,Wunderground v.1.15,2013-02-01 15:15:00,
2013-02-01 10:20:00,6.9,0.6,30.44,WSW,251,8.0,8.0,75,0.00,,,0.00,Wunderground v.1.15,2013-02-01 15:20:00,
2013-02-01 10:25:00,7.2,0.7,30.44,SW,218,8.0,20.0,74,0.00,,,0.00,Wunderground v.1.15,2013-02-01 15:25:00,
2013-02-01 10:30:00,7.0,0.7,30.44,SW,229,8.0,20.0,75,0.00,,,0.00,Wunderground v.1.15,2013-02-01 15:30:00,
2013-02-01 10:35:00,7.4,1.1,30.44,WSW,256,7.0,20.0,75,0.00,,,0.00,Wunderground v.1.15,2013-02-01 15:35:00,
2013-02-01 10:40:00,7.6,1.3,30.44,West,265,6.0,6.0,75,0.00,,,0.00,Wunderground v.1.15,2013-02-01 15:40:00,
2013-02-01 10:50:00,8.4,1.8,30.44,SSW,212,5.0,20.0,74,0.00,,,0.00,Wunderground v.1.15,2013-02-01 15:50:00,
2013-02-01 10:55:00,8.9,2.9,30.44,West,278,5.0,20.0,76,0.00,,,0.00,Wunderground v.1.15,2013-02-01 15:55:00,
2013-02-01 11:00:00,9.4,2.8,30.44,West,259,5.0,20.0,74,0.00,,,0.00,Wunderground v.1.15,2013-02-01 16:00:00,
2013-02-01 11:05:00,9.4,2.5,30.44,WSW,242,5.0,20.0,73,0.00,,,0.00,Wunderground v.1.15,2013-02-01 16:05:00,
2013-02-01 11:10:00,9.6,3.0,30.45,West,267,4.0,20.0,74,0.00,,,0.00,Wunderground v.1.15,2013-02-01 16:10:00,
2013-02-01 11:20:00,10.4,3.8,30.45,West,273,5.0,20.0,74,0.00,,,0.00,Wunderground v.1.15,2013-02-01 16:20:00,
2013-02-01 11:25:00,10.1,2.3,30.45,WSW,252,6.0,20.0,70,0.00,,,0.00,Wunderground v.1.15,2013-02-01 16:25:00,
2013-02-01 11:30:00,10.2,3.0,30.45,WNW,295,7.0,20.0,72,0.00,,,0.00,Wunderground v.1.15,2013-02-01 16:30:00,
2013-02-01 11:35:00,10.8,3.5,30.44,West,265,6.0,20.0,72,0.00,,,0.00,Wunderground v.1.15,2013-02-01 16:35:00,
2013-02-01 11:40:00,10.8,3.2,30.44,WSW,246,7.0,7.0,71,0.00,,,0.00,Wunderground v.1.15,2013-02-01 16:40:00,
2013-02-01 11:45:00,11.3,4.0,30.44,SW,233,6.0,20.0,72,0.00,,,0.00,Wunderground v.1.15,2013-02-01 16:45:00,
2013-02-01 11:55:00,11.4,3.8,30.45,WSW,250,6.0,20.0,71,0.00,,,0.00,Wunderground v.1.15,2013-02-01 16:55:00,
2013-02-01 12:00:00,11.8,3.9,30.45,West,267,6.0,6.0,70,0.00,,,0.00,Wunderground v.1.15,2013-02-01 17:00:00,
2013-02-01 12:05:00,11.9,4.0,30.45,SW,224,6.0,20.0,70,0.00,,,0.00,Wunderground v.1.15,2013-02-01 17:05:00,
2013-02-01 12:10:00,11.9,3.4,30.44,WNW,290,7.0,7.0,68,0.00,,,0.00,Wunderground v.1.15,2013-02-01 17:10:00,
2013-02-01 12:15:00,12.1,4.2,30.44,SW,228,7.0,20.0,70,0.00,,,0.00,Wunderground v.1.15,2013-02-01 17:15:00,
2013-02-01 12:25:00,12.5,4.3,30.44,WNW,286,7.0,20.0,69,0.00,,,0.00,Wunderground v.1.15,2013-02-01 17:25:00,
2013-02-01 12:30:00,12.3,4.4,30.44,NW,323,8.0,8.0,70,0.00,,,0.00,Wunderground v.1.15,2013-02-01 17:30:00,
2013-02-01 12:35:00,12.7,5.4,30.43,WNW,290,7.0,20.0,72,0.00,,,0.00,Wunderground v.1.15,2013-02-01 17:35:00,
2013-02-01 12:40:00,13.1,5.5,30.43,West,275,6.0,20.0,71,0.00,,,0.00,Wunderground v.1.15,2013-02-01 17:40:00,
2013-02-01 12:45:00,13.8,6.4,30.43,WSW,241,6.0,20.0,72,0.00,,,0.00,Wunderground v.1.15,2013-02-01 17:45:00,
2013-02-01 12:50:00,13.8,5.8,30.43,WSW,255,7.0,7.0,70,0.00,,,0.00,Wunderground v.1.15,2013-02-01 17:50:00,
2013-02-01 13:00:00,13.9,5.6,30.42,SW,222,5.0,5.0,69,0.00,,,0.00,Wunderground v.1.15,2013-02-01 18:00:00,
2013-02-01 13:05:00,14.3,5.7,30.42,SSW,213,6.0,6.0,68,0.00,,,0.00,Wunderground v.1.15,2013-02-01 18:05:00,
2013-02-01 13:10:00,14.6,6.3,30.42,West,281,5.0,5.0,69,0.00,,,0.00,Wunderground v.1.15,2013-02-01 18:10:00,
2013-02-01 13:15:00,14.8,6.1,30.42,SSW,209,5.0,13.0,68,0.00,,,0.00,Wunderground v.1.15,2013-02-01 18:15:00,
2013-02-01 13:20:00,13.7,4.8,30.42,West,273,7.0,20.0,67,0.00,,,0.00,Wunderground v.1.15,2013-02-01 18:20:00,
2013-02-01 13:30:00,13.3,5.0,30.42,West,261,6.0,20.0,69,0.00,,,0.00,Wunderground v.1.15,2013-02-01 18:30:00,
2013-02-01 13:35:00,13.7,5.1,30.42,SW,234,6.0,20.0,68,0.00,,,0.00,Wunderground v.1.15,2013-02-01 18:35:00,
2013-02-01 13:40:00,14.1,5.5,30.41,WNW,298,8.0,8.0,68,0.00,,,0.00,Wunderground v.1.15,2013-02-01 18:40:00,
2013-02-01 13:45:00,14.8,6.8,30.41,South,182,7.0,20.0,70,0.00,,,0.00,Wunderground v.1.15,2013-02-01 18:45:00,
2013-02-01 13:50:00,15.5,6.8,30.41,SSW,211,5.0,20.0,68,0.00,,,0.00,Wunderground v.1.15,2013-02-01 18:50:00,
2013-02-01 13:55:00,16.3,7.9,30.41,SSW,205,5.0,20.0,69,0.00,,,0.00,Wunderground v.1.15,2013-02-01 18:55:00,
2013-02-01 14:05:00,16.0,7.0,30.41,NNW,327,7.0,7.0,67,0.00,,,0.00,Wunderground v.1.15,2013-02-01 19:05:00,
2013-02-01 14:10:00,16.3,7.3,30.40,WSW,255,7.0,20.0,67,0.00,,,0.00,Wunderground v.1.15,2013-02-01 19:10:00,
2013-02-01 14:15:00,15.9,5.9,30.40,WNW,294,8.0,20.0,64,0.00,,,0.00,Wunderground v.1.15,2013-02-01 19:15:00,
2013-02-01 14:20:00,15.7,6.3,30.40,SSW,196,7.0,20.0,66,0.00,,,0.00,Wunderground v.1.15,2013-02-01 19:20:00,
2013-02-01 14:25:00,16.2,6.8,30.40,WSW,245,7.0,20.0,66,0.00,,,0.00,Wunderground v.1.15,2013-02-01 19:25:00,
2013-02-01 14:30:00,16.0,6.3,30.40,South,181,7.0,20.0,65,0.00,,,0.00,Wunderground v.1.15,2013-02-01 19:30:00,
2013-02-01 14:35:00,16.5,7.4,30.40,SW,226,6.0,20.0,67,0.00,,,0.00,Wunderground v.1.15,2013-02-01 19:35:00,
2013-02-01 14:40:00,16.3,6.6,30.40,SSW,193,5.0,20.0,65,0.00,,,0.00,Wunderground v.1.15,2013-02-01 19:40:00,
2013-02-01 14:45:00,16.1,6.7,30.40,WSW,242,5.0,20.0,66,0.00,,,0.00,Wunderground v.1.15,2013-02-01 19:45:00,
2013-02-01 14:50:00,15.4,6.1,30.39,West,259,6.0,6.0,66,0.00,,,0.00,Wunderground v.1.15,2013-02-01 19:50:00,
2013-02-01 14:55:00,16.2,7.2,30.39,SW,233,6.0,20.0,67,0.00,,,0.00,Wunderground v.1.15,2013-02-01 19:55:00,
2013-02-01 15:05:00,17.3,7.5,30.39,SSW,213,6.0,6.0,65,0.00,,,0.00,Wunderground v.1.15,2013-02-01 20:05:00,
2013-02-01 15:10:00,17.7,7.9,30.39,West,277,5.0,5.0,65,0.00,,,0.00,Wunderground v.1.15,2013-02-01 20:10:00,
2013-02-01 15:15:00,17.1,7.0,30.38,WSW,241,6.0,10.0,64,0.00,,,0.00,Wunderground v.1.15,2013-02-01 20:15:00,
2013-02-01 15:20:00,17.3,7.2,30.38,SW,222,6.0,20.0,64,0.00,,,0.00,Wunderground v.1.15,2013-02-01 20:20:00,
2013-02-01 15:25:00,16.8,6.4,30.38,WSW,257,6.0,20.0,63,0.00,,,0.00,Wunderground v.1.15,2013-02-01 20:25:00,
2013-02-01 15:30:00,17.1,7.0,30.38,SW,219,6.0,6.0,64,0.00,,,0.00,Wunderground v.1.15,2013-02-01 20:30:00,
2013-02-01 15:40:00,17.9,7.8,30.38,West,265,5.0,20.0,64,0.00,,,0.00,Wunderground v.1.15,2013-02-01 20:40:00,
2013-02-01 15:45:00,18.1,8.0,30.38,WSW,248,5.0,20.0,64,0.00,,,0.00,Wunderground v.1.15,2013-02-01 20:45:00,
2013-02-01 15:50:00,18.4,7.5,30.37,SW,232,5.0,5.0,62,0.00,,,0.00,Wunderground v.1.15,2013-02-01 20:50:00,
2013-02-01 15:55:00,18.4,7.5,30.37,West,276,5.0,7.0,62,0.00,,,0.00,Wunderground v.1.15,2013-02-01 20:55:00,
2013-02-01 16:00:00,18.0,7.2,30.37,SW,224,6.0,6.0,62,0.00,,,0.00,Wunderground v.1.15,2013-02-01 21:00:00,
2013-02-01 16:10:00,17.7,6.9,30.37,SW,232,6.0,20.0,62,0.00,,,0.00,Wunderground v.1.15,2013-02-01 21:10:00,
2013-02-01 16:15:00,18.0,7.2,30.37,West,260,6.0,20.0,62,0.00,,,0.00,Wunderground v.1.15,2013-02-01 21:15:00,
2013-02-01 16:20:00,18.5,7.3,30.37,SSW,200,6.0,6.0,61,0.00,,,0.00,Wunderground v.1.15,2013-02-01 21:20:00,
2013-02-01 16:25:00,18.4,6.4,30.37,SSW,202,7.0,8.0,59,0.00,,,0.00,Wunderground v.1.15,2013-02-01 21:25:00,
2013-02-01 16:30:00,18.3,6.7,30.37,SSW,196,6.0,20.0,60,0.00,,,0.00,Wunderground v.1.15,2013-02-01 21:30:00,
2013-02-01 16:35:00,18.5,7.6,30.37,WSW,238,5.0,20.0,62,0.00,,,0.00,Wunderground v.1.15,2013-02-01 21:35:00,
2013-02-01 16:45:00,18.0,7.2,30.37,SSW,213,5.0,20.0,62,0.00,,,0.00,Wunderground v.1.15,2013-02-01 21:45:00,
2013-02-01 16:50:00,17.9,7.4,30.37,SW,227,5.0,20.0,63,0.00,,,0.00,Wunderground v.1.15,2013-02-01 21:50:00,
2013-02-01 16:55:00,18.2,7.7,30.37,SW,236,5.0,20.0,63,0.00,,,0.00,Wunderground v.1.15,2013-02-01 21:55:00,
2013-02-01 17:00:00,18.1,7.6,30.37,West,264,6.0,6.0,63,0.00,,,0.00,Wunderground v.1.15,2013-02-01 22:00:00,
2013-02-01 17:05:00,18.0,7.5,30.37,SW,223,5.0,7.0,63,0.00,,,0.00,Wunderground v.1.15,2013-02-01 22:05:00,
2013-02-01 17:15:00,17.8,7.7,30.37,SSE,166,5.0,20.0,64,0.00,,,0.00,Wunderground v.1.15,2013-02-01 22:15:00,
2013-02-01 17:20:00,17.7,7.6,30.37,SSW,213,5.0,20.0,64,0.00,,,0.00,Wunderground v.1.15,2013-02-01 22:20:00,
2013-02-01 17:25:00,17.6,7.5,30.36,WSW,238,6.0,20.0,64,0.00,,,0.00,Wunderground v.1.15,2013-02-01 22:25:00,
2013-02-01 17:30:00,17.6,7.5,30.36,SW,223,5.0,20.0,64,0.00,,,0.00,Wunderground v.1.15,2013-02-01 22:30:00,
2013-02-01 17:35:00,17.6,7.8,30.36,SSW,208,5.0,20.0,65,0.00,,,0.00,Wunderground v.1.15,2013-02-01 22:35:00,
2013-02-01 17:40:00,17.6,7.5,30.36,SSW,213,6.0,6.0,64,0.00,,,0.00,Wunderground v.1.15,2013-02-01 22:40:00,
2013-02-01 17:50:00,17.5,7.4,30.36,SSW,196,5.0,20.0,64,0.00,,,0.00,Wunderground v.1.15,2013-02-01 22:50:00,
2013-02-01 17:55:00,17.4,7.6,30.35,SSW,199,4.0,20.0,65,0.00,,,0.00,Wunderground v.1.15,2013-02-01 22:55:00,
2013-02-01 18:00:00,17.4,7.6,30.35,West,266,4.0,4.0,65,0.00,,,0.00,Wunderground v.1.15,2013-02-01 23:00:00,
2013-02-01 18:05:00,17.3,7.9,30.35,SW,223,4.0,20.0,66,0.00,,,0.00,Wunderground v.1.15,2013-02-01 23:05:00,
2013-02-01 18:10:00,17.1,7.7,30.35,SSW,197,2.0,2.0,66,0.00,,,0.00,Wunderground v.1.15,2013-02-01 23:10:00,
2013-02-01 18:20:00,17.1,7.7,30.35,SW,224,4.0,4.0,66,0.00,,,0.00,Wunderground v.1.15,2013-02-01 23:20:00,
2013-02-01 18:25:00,17.1,7.7,30.35,SW,229,4.0,20.0,66,0.00,,,0.00,Wunderground v.1.15,2013-02-01 23:25:00,
2013-02-01 18:30:00,17.1,8.0,30.34,SW,218,3.0,3.0,67,0.00,,,0.00,Wunderground v.1.15,2013-02-01 23:30:00,
2013-02-01 18:35:00,17.0,7.9,30.34,South,172,3.0,6.0,67,0.00,,,0.00,Wunderground v.1.15,2013-02-01 23:35:00,
2013-02-01 18:40:00,17.0,7.9,30.34,SSW,199,3.0,20.0,67,0.00,,,0.00,Wunderground v.1.15,2013-02-01 23:40:00,
2013-02-01 18:45:00,17.0,7.9,30.34,SW,217,3.0,20.0,67,0.00,,,0.00,Wunderground v.1.15,2013-02-01 23:45:00,
2013-02-01 18:55:00,16.8,8.1,30.35,SW,225,3.0,20.0,68,0.00,,,0.00,Wunderground v.1.15,2013-02-01 23:55:00,
2013-02-01 19:00:00,16.8,8.1,30.35,SW,215,3.0,3.0,68,0.00,,,0.00,Wunderground v.1.15,2013-02-02 00:00:00,
2013-02-01 19:05:00,16.7,8.0,30.35,SSW,207,3.0,4.0,68,0.00,,,0.00,Wunderground v.1.15,2013-02-02 00:05:00,
2013-02-01 19:10:00,16.7,8.3,30.35,SSW,205,3.0,3.0,69,0.00,,,0.00,Wunderground v.1.15,2013-02-02 00:10:00,
2013-02-01 19:15:00,16.7,8.3,30.35,SSW,208,3.0,20.0,69,0.00,,,0.00,Wunderground v.1.15,2013-02-02 00:15:00,
2013-02-01 19:25:00,16.6,8.5,30.35,SSW,213,2.0,20.0,70,0.00,,,0.00,Wunderground v.1.15,2013-02-02 00:25:00,
2013-02-01 19:30:00,16.4,8.3,30.36,SSW,213,1.0,20.0,70,0.00,,,0.00,Wunderground v.1.15,2013-02-02 00:30:00,
2013-02-01 19:35:00,16.3,8.5,30.36,SSW,209,1.0,20.0,71,0.00,,,0.00,Wunderground v.1.15,2013-02-02 00:35:00,
2013-02-01 19:40:00,16.3,8.9,30.35,SSW,209,1.0,1.0,72,0.00,,,0.00,Wunderground v.1.15,2013-02-02 00:40:00,
2013-02-01 19:45:00,16.3,8.9,30.35,SW,219,2.0,2.0,72,0.00,,,0.00,Wunderground v.1.15,2013-02-02 00:45:00,
2013-02-01 19:50:00,16.4,8.9,30.35,SSW,202,2.0,2.0,72,0.00,,,0.00,Wunderground v.1.15,2013-02-02 00:50:00,
2013-02-01 19:55:00,16.6,9.1,30.35,SSW,210,2.0,4.0,72,0.00,,,0.00,Wunderground v.1.15,2013-02-02 00:55:00,
2013-02-01 20:05:00,16.7,9.2,30.35,SW,235,3.0,20.0,72,0.00,,,0.00,Wunderground v.1.15,2013-02-02 01:05:00,
2013-02-01 20:10:00,16.9,9.7,30.35,SSW,200,3.0,20.0,73,0.00,,,0.00,Wunderground v.1.15,2013-02-02 01:10:00,
2013-02-01 20:15:00,17.1,9.9,30.35,SSW,196,2.0,20.0,73,0.00,,,0.00,Wunderground v.1.15,2013-02-02 01:15:00,
2013-02-01 20:20:00,17.2,9.7,30.35,SSW,204,2.0,20.0,72,0.00,,,0.00,Wunderground v.1.15,2013-02-02 01:20:00,
2013-02-01 20:25:00,17.3,10.1,30.35,South,172,2.0,20.0,73,0.00,,,0.00,Wunderground v.1.15,2013-02-02 01:25:00,
2013-02-01 20:30:00,17.5,10.3,30.34,South,184,2.0,2.0,73,0.00,,,0.00,Wunderground v.1.15,2013-02-02 01:30:00,
2013-02-01 20:35:00,17.6,10.4,30.34,South,190,2.0,20.0,73,0.00,,,0.00,Wunderground v.1.15,2013-02-02 01:35:00,
2013-02-01 20:40:00,17.8,10.6,30.34,SW,214,3.0,20.0,73,0.00,,,0.00,Wunderground v.1.15,2013-02-02 01:40:00,
2013-02-01 20:45:00,18.0,10.5,30.34,South,191,4.0,20.0,72,0.00,,,0.00,Wunderground v.1.15,2013-02-02 01:45:00,
2013-02-01 20:50:00,18.2,10.4,30.34,South,171,5.0,5.0,71,0.00,,,0.00,Wunderground v.1.15,2013-02-02 01:50:00,
2013-02-01 21:00:00,18.4,10.9,30.33,South,190,2.0,20.0,72,0.00,,,0.00,Wunderground v.1.15,2013-02-02 02:00:00,
2013-02-01 21:05:00,18.5,11.0,30.33,South,189,4.0,20.0,72,0.00,,,0.00,Wunderground v.1.15,2013-02-02 02:05:00,
2013-02-01 21:15:00,18.7,10.9,30.32,South,188,4.0,20.0,71,0.00,,,0.00,Wunderground v.1.15,2013-02-02 02:15:00,
2013-02-01 21:20:00,18.8,10.9,30.33,SSW,212,5.0,5.0,71,0.00,,,0.00,Wunderground v.1.15,2013-02-02 02:20:00,
2013-02-01 21:25:00,18.9,11.0,30.33,South,175,4.0,20.0,71,0.00,,,0.00,Wunderground v.1.15,2013-02-02 02:25:00,
2013-02-01 21:35:00,19.1,11.2,30.32,SSW,195,4.0,20.0,71,0.00,,,0.00,Wunderground v.1.15,2013-02-02 02:35:00,
2013-02-01 21:40:00,19.1,10.9,30.32,SSW,207,5.0,20.0,70,0.00,,,0.00,Wunderground v.1.15,2013-02-02 02:40:00,
2013-02-01 21:45:00,19.2,11.3,30.32,SSW,192,4.0,20.0,71,0.00,,,0.00,Wunderground v.1.15,2013-02-02 02:45:00,
2013-02-01 21:50:00,19.3,11.4,30.31,South,169,4.0,20.0,71,0.00,,,0.00,Wunderground v.1.15,2013-02-02 02:50:00,
2013-02-01 21:55:00,19.3,11.4,30.31,SSW,198,4.0,20.0,71,0.00,,,0.00,Wunderground v.1.15,2013-02-02 02:55:00,
2013-02-01 22:00:00,19.3,11.4,30.31,South,190,4.0,20.0,71,0.00,,,0.00,Wunderground v.1.15,2013-02-02 03:00:00,
2013-02-01 22:10:00,19.5,11.6,30.31,SW,227,4.0,4.0,71,0.00,,,0.00,Wunderground v.1.15,2013-02-02 03:10:00,
2013-02-01 22:15:00,19.5,11.6,30.30,SW,230,3.0,20.0,71,0.00,,,0.00,Wunderground v.1.15,2013-02-02 03:15:00,
2013-02-01 22:20:00,19.6,11.7,30.30,SW,230,3.0,20.0,71,0.00,,,0.00,Wunderground v.1.15,2013-02-02 03:20:00,
2013-02-01 22:25:00,19.7,11.8,30.30,South,180,3.0,20.0,71,0.00,,,0.00,Wunderground v.1.15,2013-02-02 03:25:00,
2013-02-01 22:30:00,19.7,11.5,30.30,SSW,208,4.0,4.0,70,0.00,,,0.00,Wunderground v.1.15,2013-02-02 03:30:00,
2013-02-01 22:40:00,19.8,11.9,30.29,SSW,200,4.0,20.0,71,0.00,,,0.00,Wunderground v.1.15,2013-02-02 03:40:00,
2013-02-01 22:45:00,19.8,11.9,30.29,SSW,211,5.0,20.0,71,0.00,,,0.00,Wunderground v.1.15,2013-02-02 03:45:00,
2013-02-01 22:50:00,19.8,11.9,30.29,SSW,207,5.0,20.0,71,0.00,,,0.00,Wunderground v.1.15,2013-02-02 03:50:00,
2013-02-01 22:55:00,19.8,11.6,30.29,SSW,208,5.0,20.0,70,0.00,,,0.00,Wunderground v.1.15,2013-02-02 03:55:00,
2013-02-01 23:00:00,19.8,11.9,30.29,SSW,209,4.0,20.0,71,0.00,,,0.00,Wunderground v.1.15,2013-02-02 04:00:00,
2013-02-01 23:05:00,19.8,12.2,30.28,South,181,3.0,20.0,72,0.00,,,0.00,Wunderground v.1.15,2013-02-02 04:05:00,
2013-02-01 23:15:00,19.8,12.5,30.28,SW,223,5.0,20.0,73,0.00,,,0.00,Wunderground v.1.15,2013-02-02 04:15:00,
2013-02-01 23:20:00,19.9,12.3,30.28,SSW,198,6.0,6.0,72,0.00,,,0.00,Wunderground v.1.15,2013-02-02 04:20:00,
2013-02-01 23:25:00,19.9,12.6,30.28,SW,226,5.0,7.0,73,0.00,,,0.00,Wunderground v.1.15,2013-02-02 04:25:00,
2013-02-01 23:30:00,19.9,12.3,30.28,South,186,5.0,20.0,72,0.00,,,0.00,Wunderground v.1.15,2013-02-02 04:30:00,
2013-02-01 23:35:00,19.9,12.3,30.28,SSW,200,6.0,20.0,72,0.00,,,0.00,Wunderground v.1.15,2013-02-02 04:35:00,
2013-02-01 23:45:00,20.0,12.4,30.28,SW,223,4.0,20.0,72,0.00,,,0.00,Wunderground v.1.15,2013-02-02 04:45:00,
2013-02-01 23:50:00,20.0,12.4,30.27,SSW,201,4.0,20.0,72,0.00,,,0.00,Wunderground v.1.15,2013-02-02 04:50:00,
2013-02-01 23:55:00,20.0,12.4,30.27,SSW,196,5.0,20.0,72,0.00,,,0.00,Wunderground v.1.15,2013-02-02 04:55:00,